sensor_id;sensor_type;location;lat;lon;timestamp;P1;durP1;ratioP1;P2;durP2;ratioP2
72590;SDS011;60625;51.212;5.952;2023-03-23T00:03:02;5.50;;;2.10;;
72590;SDS011;60625;51.212;5.952;2023-03-23T00:08:03;6.70;;;2.60;;
72590;SDS011;60625;51.212;5.952;2023-03-23T00:13:04;6.10;;;2.00;;
72590;SDS011;60625;51.212;5.952;2023-03-23T00:18:04;5.60;;;2.30;;
72590;SDS011;60625;51.212;5.952;2023-03-23T00:23:06;5.70;;;2.40;;
72590;SDS011;60625;51.212;5.952;2023-03-23T00:28:07;5.90;;;2.40;;
72590;SDS011;60625;51.212;5.952;2023-03-23T00:33:08;6.50;;;2.90;;
72590;SDS011;60625;51.212;5.952;2023-03-23T00:38:13;7.20;;;2.40;;
72590;SDS011;60625;51.212;5.952;2023-03-23T00:43:17;7.20;;;2.60;;
72590;SDS011;60625;51.212;5.952;2023-03-23T00:48:20;6.20;;;2.40;;
72590;SDS011;60625;51.212;5.952;2023-03-23T00:53:21;7.60;;;2.80;;
72590;SDS011;60625;51.212;5.952;2023-03-23T00:58:22;6.80;;;2.50;;
72590;SDS011;60625;51.212;5.952;2023-03-23T01:03:23;6.90;;;2.80;;
72590;SDS011;60625;51.212;5.952;2023-03-23T01:08:25;6.80;;;2.70;;
72590;SDS011;60625;51.212;5.952;2023-03-23T01:13:26;6.20;;;2.70;;
72590;SDS011;60625;51.212;5.952;2023-03-23T01:18:27;7.30;;;2.80;;
72590;SDS011;60625;51.212;5.952;2023-03-23T01:23:27;5.50;;;2.60;;
72590;SDS011;60625;51.212;5.952;2023-03-23T01:28:28;8.50;;;3.30;;
72590;SDS011;60625;51.212;5.952;2023-03-23T01:33:30;6.00;;;2.50;;
72590;SDS011;60625;51.212;5.952;2023-03-23T01:38:32;6.50;;;2.80;;
72590;SDS011;60625;51.212;5.952;2023-03-23T01:43:33;6.40;;;3.10;;
72590;SDS011;60625;51.212;5.952;2023-03-23T01:48:36;6.40;;;2.50;;
72590;SDS011;60625;51.212;5.952;2023-03-23T01:53:47;5.10;;;2.60;;
72590;SDS011;60625;51.212;5.952;2023-03-23T01:58:52;6.60;;;2.90;;
72590;SDS011;60625;51.212;5.952;2023-03-23T02:03:55;6.10;;;2.70;;
72590;SDS011;60625;51.212;5.952;2023-03-23T02:08:57;6.90;;;2.80;;
72590;SDS011;60625;51.212;5.952;2023-03-23T02:13:59;8.50;;;2.60;;
72590;SDS011;60625;51.212;5.952;2023-03-23T02:36:29;6.20;;;2.90;;
72590;SDS011;60625;51.212;5.952;2023-03-23T02:42:10;5.30;;;3.10;;
72590;SDS011;60625;51.212;5.952;2023-03-23T02:47:19;7.10;;;3.00;;
72590;SDS011;60625;51.212;5.952;2023-03-23T02:52:26;7.00;;;3.00;;
72590;SDS011;60625;51.212;5.952;2023-03-23T02:57:28;6.70;;;3.30;;
72590;SDS011;60625;51.212;5.952;2023-03-23T03:02:33;5.30;;;2.40;;
72590;SDS011;60625;51.212;5.952;2023-03-23T03:07:56;7.30;;;2.60;;
72590;SDS011;60625;51.212;5.952;2023-03-23T03:13:25;6.10;;;2.90;;
72590;SDS011;60625;51.212;5.952;2023-03-23T03:18:58;6.80;;;2.60;;
72590;SDS011;60625;51.212;5.952;2023-03-23T03:24:03;7.80;;;2.70;;
72590;SDS011;60625;51.212;5.952;2023-03-23T03:29:09;6.20;;;3.10;;
72590;SDS011;60625;51.212;5.952;2023-03-23T03:34:14;6.50;;;2.40;;
72590;SDS011;60625;51.212;5.952;2023-03-23T03:39:18;5.90;;;3.10;;
72590;SDS011;60625;51.212;5.952;2023-03-23T03:44:21;4.60;;;2.50;;
72590;SDS011;60625;51.212;5.952;2023-03-23T03:49:22;7.30;;;2.80;;
72590;SDS011;60625;51.212;5.952;2023-03-23T03:54:23;7.20;;;2.80;;
72590;SDS011;60625;51.212;5.952;2023-03-23T03:59:23;5.70;;;2.60;;
72590;SDS011;60625;51.212;5.952;2023-03-23T04:04:56;7.40;;;3.40;;
72590;SDS011;60625;51.212;5.952;2023-03-23T04:09:56;6.40;;;2.50;;
72590;SDS011;60625;51.212;5.952;2023-03-23T04:14:57;5.90;;;2.50;;
72590;SDS011;60625;51.212;5.952;2023-03-23T04:20:06;4.60;;;2.50;;
72590;SDS011;60625;51.212;5.952;2023-03-23T04:25:12;5.80;;;2.10;;
72590;SDS011;60625;51.212;5.952;2023-03-23T04:30:13;5.60;;;2.30;;
72590;SDS011;60625;51.212;5.952;2023-03-23T04:35:19;4.70;;;2.00;;
72590;SDS011;60625;51.212;5.952;2023-03-23T04:40:26;5.00;;;2.00;;
72590;SDS011;60625;51.212;5.952;2023-03-23T04:45:52;5.60;;;2.20;;
72590;SDS011;60625;51.212;5.952;2023-03-23T04:50:57;8.10;;;2.40;;
72590;SDS011;60625;51.212;5.952;2023-03-23T04:56:02;5.40;;;1.70;;
72590;SDS011;60625;51.212;5.952;2023-03-23T05:01:07;4.30;;;1.70;;
72590;SDS011;60625;51.212;5.952;2023-03-23T05:06:13;5.80;;;2.10;;
72590;SDS011;60625;51.212;5.952;2023-03-23T05:11:15;5.20;;;1.80;;
72590;SDS011;60625;51.212;5.952;2023-03-23T05:16:16;6.70;;;2.10;;
72590;SDS011;60625;51.212;5.952;2023-03-23T05:21:18;4.70;;;1.30;;
72590;SDS011;60625;51.212;5.952;2023-03-23T05:26:23;7.80;;;2.00;;
72590;SDS011;60625;51.212;5.952;2023-03-23T05:31:29;5.70;;;1.70;;
72590;SDS011;60625;51.212;5.952;2023-03-23T05:36:31;5.40;;;1.40;;
72590;SDS011;60625;51.212;5.952;2023-03-23T05:42:04;5.90;;;1.40;;
72590;SDS011;60625;51.212;5.952;2023-03-23T05:47:16;5.70;;;1.20;;
72590;SDS011;60625;51.212;5.952;2023-03-23T05:52:22;9.60;;;1.70;;
72590;SDS011;60625;51.212;5.952;2023-03-23T05:57:24;7.40;;;1.60;;
72590;SDS011;60625;51.212;5.952;2023-03-23T06:02:48;9.30;;;1.20;;
72590;SDS011;60625;51.212;5.952;2023-03-23T06:07:56;8.40;;;1.30;;
72590;SDS011;60625;51.212;5.952;2023-03-23T06:12:57;11.00;;;1.60;;
72590;SDS011;60625;51.212;5.952;2023-03-23T06:18:05;8.30;;;1.30;;
72590;SDS011;60625;51.212;5.952;2023-03-23T06:23:31;6.50;;;1.20;;
72590;SDS011;60625;51.212;5.952;2023-03-23T06:28:33;5.60;;;1.30;;
72590;SDS011;60625;51.212;5.952;2023-03-23T06:33:36;5.60;;;1.10;;
72590;SDS011;60625;51.212;5.952;2023-03-23T06:38:51;5.20;;;1.10;;
72590;SDS011;60625;51.212;5.952;2023-03-23T06:43:58;5.80;;;1.20;;
72590;SDS011;60625;51.212;5.952;2023-03-23T06:49:03;4.00;;;1.10;;
72590;SDS011;60625;51.212;5.952;2023-03-23T06:54:12;8.30;;;1.40;;
72590;SDS011;60625;51.212;5.952;2023-03-23T06:59:13;5.80;;;1.20;;
72590;SDS011;60625;51.212;5.952;2023-03-23T07:04:14;6.30;;;1.20;;
72590;SDS011;60625;51.212;5.952;2023-03-23T07:09:39;6.40;;;1.10;;
72590;SDS011;60625;51.212;5.952;2023-03-23T07:14:39;3.90;;;1.10;;
72590;SDS011;60625;51.212;5.952;2023-03-23T07:19:40;4.40;;;1.10;;
72590;SDS011;60625;51.212;5.952;2023-03-23T07:24:42;5.50;;;1.00;;
72590;SDS011;60625;51.212;5.952;2023-03-23T07:29:52;5.30;;;1.30;;
72590;SDS011;60625;51.212;5.952;2023-03-23T07:34:56;4.50;;;0.90;;
72590;SDS011;60625;51.212;5.952;2023-03-23T07:40:12;7.70;;;1.40;;
72590;SDS011;60625;51.212;5.952;2023-03-23T07:45:19;7.90;;;1.50;;
72590;SDS011;60625;51.212;5.952;2023-03-23T07:50:22;5.30;;;1.20;;
72590;SDS011;60625;51.212;5.952;2023-03-23T07:55:26;6.40;;;1.30;;
72590;SDS011;60625;51.212;5.952;2023-03-23T08:00:37;8.30;;;1.20;;
72590;SDS011;60625;51.212;5.952;2023-03-23T08:05:42;7.10;;;1.10;;
72590;SDS011;60625;51.212;5.952;2023-03-23T08:11:01;8.20;;;1.50;;
72590;SDS011;60625;51.212;5.952;2023-03-23T08:16:24;7.10;;;1.40;;
72590;SDS011;60625;51.212;5.952;2023-03-23T08:21:44;4.10;;;1.10;;
72590;SDS011;60625;51.212;5.952;2023-03-23T08:26:45;4.90;;;1.10;;
72590;SDS011;60625;51.212;5.952;2023-03-23T08:31:58;9.10;;;1.60;;
72590;SDS011;60625;51.212;5.952;2023-03-23T08:37:28;6.60;;;1.40;;
72590;SDS011;60625;51.212;5.952;2023-03-23T08:43:01;5.80;;;1.30;;
72590;SDS011;60625;51.212;5.952;2023-03-23T08:48:40;4.30;;;0.90;;
72590;SDS011;60625;51.212;5.952;2023-03-23T08:54:03;4.40;;;0.70;;
72590;SDS011;60625;51.212;5.952;2023-03-23T08:59:21;2.50;;;0.60;;
72590;SDS011;60625;51.212;5.952;2023-03-23T09:04:45;1.30;;;0.30;;
72590;SDS011;60625;51.212;5.952;2023-03-23T09:10:06;2.60;;;0.50;;
72590;SDS011;60625;51.212;5.952;2023-03-23T09:15:09;3.40;;;0.70;;
72590;SDS011;60625;51.212;5.952;2023-03-23T09:20:14;3.60;;;0.60;;
72590;SDS011;60625;51.212;5.952;2023-03-23T09:25:17;3.80;;;0.60;;
72590;SDS011;60625;51.212;5.952;2023-03-23T09:30:21;2.00;;;0.50;;
72590;SDS011;60625;51.212;5.952;2023-03-23T09:35:23;2.80;;;0.60;;
72590;SDS011;60625;51.212;5.952;2023-03-23T09:40:29;3.10;;;0.40;;
72590;SDS011;60625;51.212;5.952;2023-03-23T09:56:19;2.50;;;0.40;;
72590;SDS011;60625;51.212;5.952;2023-03-23T10:01:35;3.70;;;0.50;;
72590;SDS011;60625;51.212;5.952;2023-03-23T10:06:39;2.80;;;0.70;;
72590;SDS011;60625;51.212;5.952;2023-03-23T10:17:03;4.20;;;0.40;;
72590;SDS011;60625;51.212;5.952;2023-03-23T10:22:12;4.00;;;0.50;;
72590;SDS011;60625;51.212;5.952;2023-03-23T10:32:47;5.20;;;0.50;;
72590;SDS011;60625;51.212;5.952;2023-03-23T10:37:58;3.40;;;0.60;;
72590;SDS011;60625;51.212;5.952;2023-03-23T10:43:02;2.20;;;0.50;;
72590;SDS011;60625;51.212;5.952;2023-03-23T10:48:16;4.90;;;0.70;;
72590;SDS011;60625;51.212;5.952;2023-03-23T10:53:23;2.60;;;0.50;;
72590;SDS011;60625;51.212;5.952;2023-03-23T10:58:35;3.30;;;0.60;;
72590;SDS011;60625;51.212;5.952;2023-03-23T11:03:40;3.00;;;0.80;;
72590;SDS011;60625;51.212;5.952;2023-03-23T11:08:58;3.80;;;0.90;;
72590;SDS011;60625;51.212;5.952;2023-03-23T11:14:13;3.80;;;0.90;;
72590;SDS011;60625;51.212;5.952;2023-03-23T11:19:42;2.80;;;0.60;;
72590;SDS011;60625;51.212;5.952;2023-03-23T11:24:46;3.50;;;1.00;;
72590;SDS011;60625;51.212;5.952;2023-03-23T11:34:57;4.10;;;1.10;;
72590;SDS011;60625;51.212;5.952;2023-03-23T11:45:37;7.30;;;1.60;;
72590;SDS011;60625;51.212;5.952;2023-03-23T11:51:01;4.50;;;1.60;;
72590;SDS011;60625;51.212;5.952;2023-03-23T11:56:23;6.20;;;2.30;;
72590;SDS011;60625;51.212;5.952;2023-03-23T12:07:02;7.20;;;2.30;;
72590;SDS011;60625;51.212;5.952;2023-03-23T12:50:30;5.70;;;1.50;;
72590;SDS011;60625;51.212;5.952;2023-03-23T12:55:47;6.80;;;1.70;;
72590;SDS011;60625;51.212;5.952;2023-03-23T13:01:15;5.10;;;1.70;;
72590;SDS011;60625;51.212;5.952;2023-03-23T13:06:35;5.60;;;1.80;;
72590;SDS011;60625;51.212;5.952;2023-03-23T13:11:47;5.10;;;1.90;;
72590;SDS011;60625;51.212;5.952;2023-03-23T13:22:32;6.40;;;2.10;;
72590;SDS011;60625;51.212;5.952;2023-03-23T13:27:37;6.60;;;2.40;;
72590;SDS011;60625;51.212;5.952;2023-03-23T13:32:39;6.30;;;2.30;;
72590;SDS011;60625;51.212;5.952;2023-03-23T13:37:46;6.50;;;2.00;;
72590;SDS011;60625;51.212;5.952;2023-03-23T13:42:50;4.90;;;1.90;;
72590;SDS011;60625;51.212;5.952;2023-03-23T13:48:25;6.10;;;2.10;;
72590;SDS011;60625;51.212;5.952;2023-03-23T13:54:05;7.50;;;1.70;;
72590;SDS011;60625;51.212;5.952;2023-03-23T13:59:14;8.10;;;1.70;;
72590;SDS011;60625;51.212;5.952;2023-03-23T14:04:31;4.90;;;1.60;;
72590;SDS011;60625;51.212;5.952;2023-03-23T14:09:37;7.50;;;1.70;;
72590;SDS011;60625;51.212;5.952;2023-03-23T14:14:48;5.10;;;1.40;;
72590;SDS011;60625;51.212;5.952;2023-03-23T14:19:52;7.00;;;1.70;;
72590;SDS011;60625;51.212;5.952;2023-03-23T14:25:00;7.90;;;1.70;;
72590;SDS011;60625;51.212;5.952;2023-03-23T14:30:19;5.60;;;1.30;;
72590;SDS011;60625;51.212;5.952;2023-03-23T14:40:33;5.80;;;1.40;;
72590;SDS011;60625;51.212;5.952;2023-03-23T14:45:35;5.20;;;1.20;;
72590;SDS011;60625;51.212;5.952;2023-03-23T14:55:42;9.60;;;2.40;;
72590;SDS011;60625;51.212;5.952;2023-03-23T15:00:54;8.90;;;1.90;;
72590;SDS011;60625;51.212;5.952;2023-03-23T15:06:05;6.80;;;1.60;;
72590;SDS011;60625;51.212;5.952;2023-03-23T15:21:30;9.80;;;1.90;;
72590;SDS011;60625;51.212;5.952;2023-03-23T15:26:43;10.00;;;1.90;;
72590;SDS011;60625;51.212;5.952;2023-03-23T15:31:54;6.50;;;1.90;;
72590;SDS011;60625;51.212;5.952;2023-03-23T15:36:59;9.60;;;2.30;;
72590;SDS011;60625;51.212;5.952;2023-03-23T15:42:05;8.20;;;2.00;;
72590;SDS011;60625;51.212;5.952;2023-03-23T15:47:19;5.40;;;1.80;;
72590;SDS011;60625;51.212;5.952;2023-03-23T15:52:21;10.70;;;2.40;;
72590;SDS011;60625;51.212;5.952;2023-03-23T15:57:22;6.80;;;2.30;;
72590;SDS011;60625;51.212;5.952;2023-03-23T16:02:23;6.30;;;1.90;;
72590;SDS011;60625;51.212;5.952;2023-03-23T16:07:24;8.10;;;1.90;;
72590;SDS011;60625;51.212;5.952;2023-03-23T16:12:25;7.60;;;1.80;;
72590;SDS011;60625;51.212;5.952;2023-03-23T16:17:25;6.60;;;1.70;;
72590;SDS011;60625;51.212;5.952;2023-03-23T16:22:26;7.60;;;1.80;;
72590;SDS011;60625;51.212;5.952;2023-03-23T16:27:26;6.50;;;1.70;;
72590;SDS011;60625;51.212;5.952;2023-03-23T16:32:27;6.00;;;1.50;;
72590;SDS011;60625;51.212;5.952;2023-03-23T16:37:27;7.40;;;1.80;;
72590;SDS011;60625;51.212;5.952;2023-03-23T16:42:32;8.90;;;1.70;;
72590;SDS011;60625;51.212;5.952;2023-03-23T16:47:32;8.10;;;1.60;;
72590;SDS011;60625;51.212;5.952;2023-03-23T16:52:33;9.60;;;1.40;;
72590;SDS011;60625;51.212;5.952;2023-03-23T16:57:34;6.80;;;1.40;;
72590;SDS011;60625;51.212;5.952;2023-03-23T17:02:41;6.30;;;2.20;;
72590;SDS011;60625;51.212;5.952;2023-03-23T17:07:42;6.40;;;1.60;;
72590;SDS011;60625;51.212;5.952;2023-03-23T17:12:43;9.00;;;1.80;;
72590;SDS011;60625;51.212;5.952;2023-03-23T17:17:43;6.80;;;2.00;;
72590;SDS011;60625;51.212;5.952;2023-03-23T17:22:44;6.70;;;1.60;;
72590;SDS011;60625;51.212;5.952;2023-03-23T17:27:45;10.00;;;1.80;;
72590;SDS011;60625;51.212;5.952;2023-03-23T17:32:46;9.90;;;2.10;;
72590;SDS011;60625;51.212;5.952;2023-03-23T17:37:47;7.40;;;1.70;;
72590;SDS011;60625;51.212;5.952;2023-03-23T17:42:48;10.80;;;1.90;;
72590;SDS011;60625;51.212;5.952;2023-03-23T17:47:48;8.80;;;2.00;;
72590;SDS011;60625;51.212;5.952;2023-03-23T17:52:49;10.20;;;2.60;;
72590;SDS011;60625;51.212;5.952;2023-03-23T17:57:49;11.90;;;3.90;;
72590;SDS011;60625;51.212;5.952;2023-03-23T18:02:50;7.20;;;2.30;;
72590;SDS011;60625;51.212;5.952;2023-03-23T18:07:51;8.80;;;2.30;;
72590;SDS011;60625;51.212;5.952;2023-03-23T18:12:51;10.00;;;2.40;;
72590;SDS011;60625;51.212;5.952;2023-03-23T18:17:52;6.00;;;1.40;;
72590;SDS011;60625;51.212;5.952;2023-03-23T18:22:52;8.20;;;1.50;;
72590;SDS011;60625;51.212;5.952;2023-03-23T18:27:53;7.40;;;1.70;;
72590;SDS011;60625;51.212;5.952;2023-03-23T18:32:53;8.40;;;2.40;;
72590;SDS011;60625;51.212;5.952;2023-03-23T18:37:54;9.50;;;2.10;;
72590;SDS011;60625;51.212;5.952;2023-03-23T18:42:54;11.80;;;1.80;;
72590;SDS011;60625;51.212;5.952;2023-03-23T18:47:55;7.70;;;2.20;;
72590;SDS011;60625;51.212;5.952;2023-03-23T18:52:55;9.70;;;2.20;;
72590;SDS011;60625;51.212;5.952;2023-03-23T18:57:56;7.50;;;1.40;;
72590;SDS011;60625;51.212;5.952;2023-03-23T19:02:59;5.20;;;1.40;;
72590;SDS011;60625;51.212;5.952;2023-03-23T19:08:00;8.20;;;1.90;;
72590;SDS011;60625;51.212;5.952;2023-03-23T19:13:01;5.00;;;1.30;;
72590;SDS011;60625;51.212;5.952;2023-03-23T19:18:01;8.10;;;1.60;;
72590;SDS011;60625;51.212;5.952;2023-03-23T19:23:02;7.70;;;1.60;;
72590;SDS011;60625;51.212;5.952;2023-03-23T19:28:02;5.80;;;1.50;;
72590;SDS011;60625;51.212;5.952;2023-03-23T19:33:03;5.60;;;1.40;;
72590;SDS011;60625;51.212;5.952;2023-03-23T19:38:04;5.70;;;1.30;;
72590;SDS011;60625;51.212;5.952;2023-03-23T19:43:05;4.90;;;1.50;;
72590;SDS011;60625;51.212;5.952;2023-03-23T19:48:05;9.50;;;2.20;;
72590;SDS011;60625;51.212;5.952;2023-03-23T19:53:07;8.10;;;1.80;;
72590;SDS011;60625;51.212;5.952;2023-03-23T19:58:08;6.80;;;1.50;;
72590;SDS011;60625;51.212;5.952;2023-03-23T20:03:09;7.20;;;1.70;;
72590;SDS011;60625;51.212;5.952;2023-03-23T20:08:10;6.00;;;1.70;;
72590;SDS011;60625;51.212;5.952;2023-03-23T20:13:11;4.90;;;1.90;;
72590;SDS011;60625;51.212;5.952;2023-03-23T20:18:12;6.90;;;1.40;;
72590;SDS011;60625;51.212;5.952;2023-03-23T20:23:17;6.30;;;1.80;;
72590;SDS011;60625;51.212;5.952;2023-03-23T20:28:18;6.10;;;1.60;;
72590;SDS011;60625;51.212;5.952;2023-03-23T20:33:18;6.50;;;2.20;;
72590;SDS011;60625;51.212;5.952;2023-03-23T20:38:20;7.00;;;1.80;;
72590;SDS011;60625;51.212;5.952;2023-03-23T20:43:23;6.90;;;1.70;;
72590;SDS011;60625;51.212;5.952;2023-03-23T20:48:31;6.70;;;1.40;;
72590;SDS011;60625;51.212;5.952;2023-03-23T20:53:34;4.80;;;1.40;;
72590;SDS011;60625;51.212;5.952;2023-03-23T20:58:35;7.10;;;1.40;;
72590;SDS011;60625;51.212;5.952;2023-03-23T21:03:39;6.50;;;1.70;;
72590;SDS011;60625;51.212;5.952;2023-03-23T21:08:40;7.10;;;1.60;;
72590;SDS011;60625;51.212;5.952;2023-03-23T21:13:41;5.20;;;1.10;;
72590;SDS011;60625;51.212;5.952;2023-03-23T21:18:41;7.00;;;1.70;;
72590;SDS011;60625;51.212;5.952;2023-03-23T21:23:42;7.30;;;2.00;;
72590;SDS011;60625;51.212;5.952;2023-03-23T21:28:46;5.20;;;1.50;;
72590;SDS011;60625;51.212;5.952;2023-03-23T21:33:49;6.20;;;1.30;;
72590;SDS011;60625;51.212;5.952;2023-03-23T21:38:50;5.00;;;1.50;;
72590;SDS011;60625;51.212;5.952;2023-03-23T21:43:50;6.50;;;1.40;;
72590;SDS011;60625;51.212;5.952;2023-03-23T21:48:51;5.30;;;1.60;;
72590;SDS011;60625;51.212;5.952;2023-03-23T21:53:53;6.60;;;1.40;;
72590;SDS011;60625;51.212;5.952;2023-03-23T21:58:55;6.30;;;1.50;;
72590;SDS011;60625;51.212;5.952;2023-03-23T22:03:56;5.20;;;1.70;;
72590;SDS011;60625;51.212;5.952;2023-03-23T22:08:57;5.30;;;1.50;;
72590;SDS011;60625;51.212;5.952;2023-03-23T22:13:58;8.20;;;2.00;;
72590;SDS011;60625;51.212;5.952;2023-03-23T22:18:59;8.30;;;2.00;;
72590;SDS011;60625;51.212;5.952;2023-03-23T22:24:01;9.30;;;2.10;;
72590;SDS011;60625;51.212;5.952;2023-03-23T22:29:02;6.30;;;1.80;;
72590;SDS011;60625;51.212;5.952;2023-03-23T22:34:04;4.60;;;1.40;;
72590;SDS011;60625;51.212;5.952;2023-03-23T22:39:07;5.20;;;1.70;;
72590;SDS011;60625;51.212;5.952;2023-03-23T22:44:14;6.00;;;1.60;;
72590;SDS011;60625;51.212;5.952;2023-03-23T22:49:17;7.40;;;1.80;;
72590;SDS011;60625;51.212;5.952;2023-03-23T22:54:18;5.80;;;1.70;;
72590;SDS011;60625;51.212;5.952;2023-03-23T22:59:18;6.10;;;1.90;;
72590;SDS011;60625;51.212;5.952;2023-03-23T23:04:19;5.60;;;1.70;;
72590;SDS011;60625;51.212;5.952;2023-03-23T23:09:20;4.90;;;1.70;;
72590;SDS011;60625;51.212;5.952;2023-03-23T23:14:21;5.10;;;1.60;;
72590;SDS011;60625;51.212;5.952;2023-03-23T23:19:21;5.60;;;1.60;;
72590;SDS011;60625;51.212;5.952;2023-03-23T23:24:22;5.00;;;2.30;;
72590;SDS011;60625;51.212;5.952;2023-03-23T23:29:25;6.00;;;1.60;;
72590;SDS011;60625;51.212;5.952;2023-03-23T23:34:26;4.90;;;1.60;;
72590;SDS011;60625;51.212;5.952;2023-03-23T23:39:27;4.80;;;1.80;;
72590;SDS011;60625;51.212;5.952;2023-03-23T23:44:29;6.20;;;1.70;;
72590;SDS011;60625;51.212;5.952;2023-03-23T23:49:30;6.50;;;2.30;;
72590;SDS011;60625;51.212;5.952;2023-03-23T23:54:34;5.10;;;2.00;;
72590;SDS011;60625;51.212;5.952;2023-03-23T23:59:36;5.50;;;1.80;;
